Messwerte Alexandria Borg El Arab

Temperatur

Temperatur
°C
1594638000 13.00 13.00
1594641600 14.00 14.00
1594645200 15.00 15.00 30
1594648800 16.00 16.00 29
1594652400 17.00 17.00 28
1594656000 18.00 18.00 27
1594659600 19.00 19.00 27
1594663200 20.00 20.00 25
1594666800 21.00 21.00 25
1594670400 22.00 22.00 24
1594674000 23.00 23.00 24
1594677600 0.00 0.00 23
1594681200 1.00 1.00
1594684800 2.00 2.00 23
1594688400 3.00 3.00 23
1594692000 4.00 4.00 23
1594695600 5.00 5.00 24
1594699200 6.00 6.00 25
1594702800 7.00 7.00 26
1594706400 8.00 8.00 26
1594710000 9.00 9.00 27
1594713600 10.00 10.00
1594717200 11.00 11.00 29
1594720800 12.00 12.00 29

Aktuellste Messwerte

Wettercharakter
Wetter: freundlich
Temperatur
29 °C
Feuchtigkeit
60 %
Wind
20 km/hWindrichtung: Nordwest
Luftdruck
1007 hPa
Messzeit: 14. Juli 2020, 12.00Datenquelle: METAR

Weitere Messstationen in der Nähe

Messstation Temperatur Entfernung
Alexandria 30 °C 39 km
Kairo 33 °C 185 km
Mersa Matruh 28 °C 240 km
Port Said 30 °C 244 km
Ismalia - 246 km
Asyut 34 °C 449 km
El Tor - 482 km

Wind

Windrichtung Böen Mittelwind
° km/h km/h
1594638000 13.00 12.00 - 13.00
1594641600 14.00 13.00 - 14.00
1594645200 15.00 14.00 - 15.00 330° 25
1594648800 16.00 15.00 - 16.00 330° 20
1594652400 17.00 16.00 - 17.00 310° 20
1594656000 18.00 17.00 - 18.00 320° 30
1594659600 19.00 18.00 - 19.00 330° 20
1594663200 20.00 19.00 - 20.00 340° 15
1594666800 21.00 20.00 - 21.00 330° 10
1594670400 22.00 21.00 - 22.00 330° 10
1594674000 23.00 22.00 - 23.00 310° 10
1594677600 0.00 23.00 - 0.00 300° 5
1594681200 1.00 0.00 - 1.00
1594684800 2.00 1.00 - 2.00 300° 10
1594688400 3.00 2.00 - 3.00 320° 10
1594692000 4.00 3.00 - 4.00 300° 10
1594695600 5.00 4.00 - 5.00 320° 10
1594699200 6.00 5.00 - 6.00 330° 15
1594702800 7.00 6.00 - 7.00 320° 15
1594706400 8.00 7.00 - 8.00 310° 15
1594710000 9.00 8.00 - 9.00 300° 15
1594713600 10.00 9.00 - 10.00
1594717200 11.00 10.00 - 11.00 310° 20
1594720800 12.00 11.00 - 12.00 300° 20

Ihre Wetterstation

Fehlt Ihre Wetterstation auf unserem Portal?

Schreiben Sie an network@meteonews.ch

Klima

Wann ist es am wärmsten? Wann regnet es am wenigsten? Unsere Klimadaten geben Auskunft.